Terminal Aerodrome Forecast
Issued by NWS

Home | Current Version | Previous Version | Text Only | Print | Product List | Glossary On
Versions: 1 2 3 4 5 6 7 8 9 10 11 12 13 14 15 16 17 18 19 20
000
FTUS43 KDVN 202300
TAFBRL
TAF
KBRL 202339Z 2100/2124 14005KT 4SM -DZ BR OVC008
     FM210300 18006KT 2SM -DZ BR OVC004
     FM210900 17007KT 3SM BR OVC006
     FM211500 18012KT 5SM BR OVC012=

USA.gov is the U.S. government's official web portal to all federal, state and local government web resources and services.